메인 페이지
METAR-TAF:

METAR-TAF

공항 :

Nuevo Laredo, 멕시코

위도: 27-26N, 경도: 099-34W, 고도: 148m

현재 날씨관측

예보는 2 시간 25분 전, 01:41시(UTC)에 발표되었습니다.
무풍
온도 19°C
습도 46%
기압 1021 hPa
시정: 16.1km
맑음

METAR: MMNL 080141Z 00000KT 10SM SKC 19/07 A3016

시각: 22:06 (04:06 UTC)

예보

예보는 11 시간 26분 전, 16:40시(UTC)에 발표되었습니다.
예보 대상 시간: 07일 18시부터 08일 18시까지 (UTC)
동북동10kt
시정: 10km
맑음
08일 0400시부터 (UTC)
남동8kt
시정: 10km
맑음
일시적
08일 10시부터 08일 14시까지 (UTC)
시정: 4.8km
고도 1000ft 상공 구름 많음
박무, 연무
08일 1600시부터 (UTC)
남남동12kt
시정: 10km
고도 1500ft 상공 구름 많음

TAF: MMNL 071640Z 0718/0818 07010KT P6SM SKC FM080400 14008KT P6SM SKC TEMPO 0810/0814 3SM BR HZ BKN010 FM081600 15012KT P6SM BKN015

4,000개 이상의 공항 관측 자료 및 예보 (METAR 및 TAF 보고).

지도상에서 검색 가능한 기상관측소가 노란 점과 빨간 점으로 표시되어 있습니다.

기상관측소 명을 보려면 표시 위로 마우스를 이동하세요.

날씨 관측과 예보를 보려면 클릭하세요.

지도 변경 : 확대하려면 엑스 표시가 있는 녹색 버튼, 축소하려면 빼기 표시가 있는 녹색 버튼, 다음 페이지의 지도를 보려면 녹색 화살표를 클릭하세요.


METAR-TAF: